Time;durP1;ratioP1;P1;durP2;ratioP2;P2;SDS_P1;SDS_P2;PMS_P1;PMS_P2;Temp;Humidity;BMP_temperature;BMP_pressure;BME280_temperature;BME280_humidity;BME280_pressure;Samples;Min_cycle;Max_cycle;Signal;HPM_P1;HPM_P2
2023/03/29 00:02:02;;;;;;;29.10;16.80;;;;;;;-3.20;90.63;99632.10;109540;1251;61317;-71
2023/03/29 00:04:28;;;;;;;26.70;16.20;;;;;;;-3.24;90.84;99631.59;109497;1253;64196;-72
2023/03/29 00:06:55;;;;;;;26.60;17.00;;;;;;;-3.28;91.32;99628.98;109490;1251;58528;-72
2023/03/29 00:09:25;;;;;;;28.40;17.70;;;;;;;-3.30;91.73;99631.42;109562;1253;58293;-72
2023/03/29 00:11:51;;;;;;;26.70;16.70;;;;;;;-3.33;92.01;99629.85;109598;1253;64846;-72
2023/03/29 00:14:18;;;;;;;26.70;16.90;;;;;;;-3.35;92.39;99630.72;109568;1252;59942;-72
2023/03/29 00:16:45;;;;;;;28.90;15.90;;;;;;;-3.37;92.61;99629.85;109582;1252;64783;-71
2023/03/29 00:19:12;;;;;;;27.40;16.50;;;;;;;-3.39;92.69;99628.98;109525;1252;58165;-72
2023/03/29 00:21:38;;;;;;;25.60;17.00;;;;;;;-3.40;92.93;99623.94;109549;1253;58297;-72
2023/03/29 00:24:05;;;;;;;26.50;15.70;;;;;;;-3.41;93.05;99626.73;109525;1252;66489;-72
2023/03/29 00:26:32;;;;;;;27.10;18.20;;;;;;;-3.43;93.39;99627.77;109156;1254;60740;-72
2023/03/29 00:29:00;;;;;;;29.30;18.70;;;;;;;-3.46;93.37;99633.68;109506;1253;64731;-72
2023/03/29 00:31:27;;;;;;;30.70;18.50;;;;;;;-3.49;93.76;99634.38;109515;1253;58313;-72
2023/03/29 00:33:54;;;;;;;27.60;18.10;;;;;;;-3.51;94.24;99634.02;109505;1252;58335;-71
2023/03/29 00:36:21;;;;;;;28.00;17.50;;;;;;;-3.54;94.49;99632.29;109521;1253;64721;-71
2023/03/29 00:38:47;;;;;;;31.10;17.80;;;;;;;-3.58;95.06;99631.07;109556;1253;60007;-71
2023/03/29 00:41:14;;;;;;;33.80;20.50;;;;;;;-3.60;95.46;99629.16;109551;1252;63727;-71
2023/03/29 00:43:52;;;;;;;35.30;21.90;;;;;;;-3.62;96.18;99631.94;109180;1253;58326;-71
2023/03/29 00:46:20;;;;;;;29.80;20.20;;;;;;;-3.65;96.48;99628.48;109550;1253;59131;-71
2023/03/29 00:48:46;;;;;;;32.80;20.40;;;;;;;-3.67;96.97;99627.08;109532;1253;66558;-71
2023/03/29 00:51:15;;;;;;;28.40;18.60;;;;;;;-3.70;97.04;99626.03;109522;1252;60079;-71
2023/03/29 00:53:47;;;;;;;32.20;20.40;;;;;;;-3.75;97.43;99627.59;109591;1252;63883;-71
2023/03/29 00:56:35;;;;;;;37.00;22.30;;;;;;;-3.80;97.81;99621.34;109477;1253;58219;-72
2023/03/29 00:59:05;;;;;;;31.60;19.70;;;;;;;-3.83;98.50;99619.43;109573;1252;58165;-72
2023/03/29 01:01:44;;;;;;;29.50;19.60;;;;;;;-3.85;99.20;99616.48;109556;1253;65173;-72
2023/03/29 01:04:22;;;;;;;28.50;18.90;;;;;;;-3.85;99.52;99614.02;109532;1252;59844;-72
2023/03/29 01:07:02;;;;;;;34.10;22.90;;;;;;;-3.86;99.87;99612.82;108733;1252;1002160;-72
2023/03/29 01:09:30;;;;;;;;;;;;;;;-3.87;99.92;99609.35;109542;1252;58192;-72
2023/03/29 01:12:01;;;;;;;35.60;21.40;;;;;;;-3.91;99.99;99607.27;109538;1252;58340;-72
2023/03/29 01:14:33;;;;;;;33.10;22.10;;;;;;;-3.95;100.00;99606.39;109525;1253;64962;-72
2023/03/29 01:17:00;;;;;;;32.50;21.20;;;;;;;-3.99;100.00;99607.60;109501;1253;60819;-72
2023/03/29 01:19:30;;;;;;;32.40;22.60;;;;;;;-4.01;100.00;99610.37;109532;1252;64912;-72
2023/03/29 01:22:13;;;;;;;31.70;23.00;;;;;;;-4.04;100.00;99611.06;109538;1252;58261;-72
2023/03/29 01:24:40;;;;;;;37.10;24.00;;;;;;;-4.07;100.00;99608.10;109532;1253;58232;-72
2023/03/29 01:27:30;;;;;;;37.30;22.90;;;;;;;-4.10;100.00;99608.63;108755;1252;1003030;-72
2023/03/29 01:30:04;;;;;;;32.10;20.90;;;;;;;-4.12;100.00;99605.14;108763;1252;1002892;-72
2023/03/29 01:32:37;;;;;;;36.00;23.90;;;;;;;-4.16;100.00;99602.02;109529;1253;63916;-72
2023/03/29 01:35:14;;;;;;;38.90;22.80;;;;;;;-4.20;100.00;99599.74;109479;1252;58193;-72
2023/03/29 01:37:50;;;;;;;37.90;23.60;;;;;;;-4.24;100.00;99596.79;109553;1252;58877;-72
2023/03/29 01:40:16;;;;;;;44.60;28.10;;;;;;;-4.28;100.00;99598.17;108784;1253;1002360;-72
2023/03/29 01:43:03;;;;;;;44.70;29.00;;;;;;;-4.30;100.00;99593.64;109503;1251;60803;-72
2023/03/29 01:45:36;;;;;;;42.20;27.60;;;;;;;-4.32;100.00;99591.39;109529;1253;65020;-72
2023/03/29 01:48:12;;;;;;;42.70;26.30;;;;;;;-4.32;100.00;99591.22;108760;1253;1002227;-72
2023/03/29 01:50:42;;;;;;;33.20;23.40;;;;;;;-4.29;100.00;99591.23;109529;1253;58184;-72
2023/03/29 01:53:18;;;;;;;33.50;21.40;;;;;;;-4.24;100.00;99590.02;109560;1251;65897;-72
2023/03/29 01:55:51;;;;;;;32.10;22.00;;;;;;;-4.17;100.00;99588.66;109523;1252;60841;-72
2023/03/29 01:58:22;;;;;;;32.50;21.30;;;;;;;-4.11;100.00;99589.02;109144;1253;63759;-72
2023/03/29 02:00:54;;;;;;;34.00;20.80;;;;;;;-4.04;100.00;99587.64;109552;1252;58179;-72
2023/03/29 02:03:25;;;;;;;33.30;22.70;;;;;;;-4.00;100.00;99589.20;109115;1256;58180;-72
2023/03/29 02:05:54;;;;;;;34.90;22.90;;;;;;;-3.97;100.00;99590.42;109138;1256;65283;-73
2023/03/29 02:08:22;;;;;;;37.20;23.30;;;;;;;-3.98;100.00;99590.26;109120;1256;60746;-72
2023/03/29 02:10:50;;;;;;;41.60;24.20;;;;;;;-4.00;100.00;99587.64;109133;1256;64902;-73
2023/03/29 02:13:18;;;;;;;38.90;24.00;;;;;;;-4.06;100.00;99585.21;109072;1258;58565;-72
2023/03/29 02:15:46;;;;;;;35.80;22.80;;;;;;;-4.11;100.00;99583.11;109127;1256;58318;-72
2023/03/29 02:18:16;;;;;;;36.00;24.50;;;;;;;-4.15;100.00;99582.75;109105;1256;63648;-72
2023/03/29 02:20:48;;;;;;;33.40;22.30;;;;;;;-4.20;100.00;99578.75;109104;1257;60849;-72
2023/03/29 02:23:22;;;;;;;30.90;23.10;;;;;;;-4.24;100.00;99575.80;109041;1256;71739;-72
2023/03/29 02:25:52;;;;;;;29.40;19.90;;;;;;;-4.26;100.00;99576.33;108924;1256;58182;-72
2023/03/29 02:28:21;;;;;;;27.60;20.60;;;;;;;-4.28;100.00;99579.09;109081;1256;58177;-73
2023/03/29 02:30:52;;;;;;;28.90;20.20;;;;;;;-4.28;100.00;99578.22;108995;1256;65882;-72
2023/03/29 02:33:31;;;;;;;28.80;18.50;;;;;;;-4.27;100.00;99578.56;109124;1256;60341;-72
2023/03/29 02:36:09;;;;;;;25.60;17.80;;;;;;;-4.25;100.00;99578.22;109480;1252;63696;-72
2023/03/29 02:38:37;;;;;;;26.80;17.90;;;;;;;-4.24;100.00;99576.67;109543;1252;58251;-72
2023/03/29 02:41:05;;;;;;;26.90;19.50;;;;;;;-4.20;100.00;99580.66;109608;1252;58242;-72
2023/03/29 02:43:34;;;;;;;32.60;24.50;;;;;;;-4.18;100.00;99581.55;109556;1252;66232;-72
2023/03/29 02:46:04;;;;;;;37.60;27.10;;;;;;;-4.17;100.00;99582.23;109572;1251;60695;-73
2023/03/29 02:48:33;;;;;;;33.90;23.40;;;;;;;-4.16;100.00;99582.75;109567;1252;64990;-73
2023/03/29 02:51:04;;;;;;;32.90;22.00;;;;;;;-4.19;100.00;99585.18;108764;1252;1002418;-72
2023/03/29 02:53:46;;;;;;;29.70;19.90;;;;;;;-4.23;100.00;99590.21;109536;1252;58212;-72
2023/03/29 02:56:13;;;;;;;27.00;19.70;;;;;;;-4.28;100.00;99588.46;109577;1252;66293;-72
2023/03/29 02:58:39;;;;;;;31.50;20.20;;;;;;;-4.34;100.00;99587.23;109552;1252;59751;-71
2023/03/29 03:01:08;;;;;;;32.00;20.60;;;;;;;-4.40;100.00;99588.27;109498;1252;65112;-72
2023/03/29 03:03:35;;;;;;;30.80;19.80;;;;;;;-4.45;100.00;99588.58;109528;1251;58482;-72
2023/03/29 03:06:02;;;;;;;29.90;20.30;;;;;;;-4.48;100.00;99589.44;109589;1253;58055;-72
2023/03/29 03:08:29;;;;;;;24.80;18.80;;;;;;;-4.48;100.00;99589.61;109478;1253;66204;-72
2023/03/29 03:10:56;;;;;;;29.40;19.30;;;;;;;-4.47;100.00;99590.13;109273;1253;60841;-73
2023/03/29 03:13:22;;;;;;;23.00;18.10;;;;;;;-4.45;100.00;99593.26;109538;1252;64829;-72
2023/03/29 03:15:49;;;;;;;29.20;20.70;;;;;;;-4.40;100.00;99595.36;109491;1253;58509;-72
2023/03/29 03:18:16;;;;;;;27.70;20.80;;;;;;;-4.36;100.00;99592.42;109579;1252;58264;-72
2023/03/29 03:20:45;;;;;;;30.80;23.00;;;;;;;-4.36;100.00;99593.64;109507;1251;64927;-72
2023/03/29 03:23:12;;;;;;;29.90;22.30;;;;;;;-4.41;100.00;99594.15;109531;1253;60995;-72
2023/03/29 03:25:38;;;;;;;28.20;21.20;;;;;;;-4.45;100.00;99592.39;109539;1252;64871;-72
2023/03/29 03:28:05;;;;;;;33.60;22.10;;;;;;;-4.48;100.00;99596.20;109481;1252;58228;-72
2023/03/29 03:30:32;;;;;;;29.70;23.30;;;;;;;-4.53;100.00;99597.23;109558;1251;58219;-72
2023/03/29 03:32:59;;;;;;;33.70;23.40;;;;;;;-4.59;100.00;99595.48;109504;1251;74202;-72
2023/03/29 03:35:26;;;;;;;35.20;23.70;;;;;;;-4.65;100.00;99594.75;109158;1252;60355;-72
2023/03/29 03:37:52;;;;;;;32.60;23.80;;;;;;;-4.72;100.00;99594.56;109545;1252;65141;-72
2023/03/29 03:40:19;;;;;;;34.40;24.40;;;;;;;-4.79;100.00;99592.63;109509;1252;58486;-72
2023/03/29 03:42:46;;;;;;;37.40;22.90;;;;;;;-4.84;100.00;99594.15;109516;1253;58101;-72
2023/03/29 03:45:12;;;;;;;27.60;19.60;;;;;;;-4.86;100.00;99594.31;109559;1251;72844;-72
2023/03/29 03:47:39;;;;;;;30.90;19.20;;;;;;;-4.86;100.00;99594.48;109568;1251;61026;-72
2023/03/29 03:50:07;;;;;;;28.30;19.60;;;;;;;-4.85;100.00;99595.88;109425;1252;65321;-72
2023/03/29 03:52:34;;;;;;;30.50;20.50;;;;;;;-4.82;100.00;99596.23;109127;1257;58203;-72
2023/03/29 03:55:03;;;;;;;32.70;21.10;;;;;;;-4.78;100.00;99596.77;109503;1253;61064;-72
2023/03/29 03:57:31;;;;;;;28.90;20.90;;;;;;;-4.74;100.00;99595.77;109565;1252;64953;-72
2023/03/29 03:59:58;;;;;;;34.20;22.70;;;;;;;-4.75;100.00;99595.23;109543;1251;61040;-72
2023/03/29 04:02:25;;;;;;;35.90;22.60;;;;;;;-4.75;100.00;99593.49;109508;1253;65633;-72
2023/03/29 04:04:53;;;;;;;34.40;23.50;;;;;;;-4.74;100.00;99597.31;109172;1253;58293;-73
2023/03/29 04:07:20;;;;;;;33.80;23.60;;;;;;;-4.79;100.00;99602.67;109573;1252;58145;-72
2023/03/29 04:09:47;;;;;;;35.40;23.60;;;;;;;-4.84;100.00;99600.90;109164;1254;71448;-72
2023/03/29 04:12:14;;;;;;;34.50;23.60;;;;;;;-4.90;100.00;99600.71;109587;1253;59690;-73
2023/03/29 04:14:41;;;;;;;38.80;27.20;;;;;;;-4.97;100.00;99602.58;109555;1253;71686;-72
2023/03/29 04:17:08;;;;;;;41.60;28.00;;;;;;;-5.05;100.00;99603.58;109521;1253;58650;-73
2023/03/29 04:19:40;;;;;;;36.60;26.80;;;;;;;-5.11;100.00;99603.19;109194;1253;58678;-72
2023/03/29 04:22:06;;;;;;;40.50;24.60;;;;;;;-5.14;100.00;99602.48;109581;1252;65897;-72
2023/03/29 04:24:33;;;;;;;35.70;23.90;;;;;;;-5.13;100.00;99595.73;109533;1252;60907;-72
2023/03/29 04:26:59;;;;;;;38.90;21.80;;;;;;;-5.09;100.00;99593.33;109556;1252;72748;-73
2023/03/29 04:29:27;;;;;;;36.30;24.20;;;;;;;-5.01;100.00;99593.02;109499;1252;58125;-73
2023/03/29 04:31:55;;;;;;;34.80;24.20;;;;;;;-4.94;100.00;99593.05;109533;1253;58200;-73
2023/03/29 04:34:22;;;;;;;35.30;24.60;;;;;;;-4.89;100.00;99590.48;109577;1251;64854;-74
2023/03/29 04:36:51;;;;;;;38.00;25.00;;;;;;;-4.90;100.00;99590.84;109523;1252;68136;-73
2023/03/29 04:39:18;;;;;;;39.60;26.30;;;;;;;-4.92;100.00;99592.39;109552;1252;72703;-72
2023/03/29 04:41:46;;;;;;;36.10;25.30;;;;;;;-4.93;100.00;99593.77;109298;1252;58346;-73
2023/03/29 04:44:13;;;;;;;37.40;26.20;;;;;;;-4.93;100.00;99592.55;109444;1252;58254;-73
2023/03/29 04:46:39;;;;;;;35.60;25.30;;;;;;;-4.97;100.00;99592.17;109576;1253;74115;-73
2023/03/29 04:49:06;;;;;;;39.30;27.90;;;;;;;-4.98;100.00;99592.17;109529;1253;60787;-73
2023/03/29 04:51:32;;;;;;;41.40;30.10;;;;;;;-4.65;100.00;99586.42;109507;1252;71059;-72
2023/03/29 04:53:59;;;;;;;40.50;26.90;;;;;;;-4.05;100.00;99589.01;109300;1254;59223;-72
2023/03/29 04:56:26;;;;;;;36.30;25.30;;;;;;;-3.53;100.00;99588.69;109500;1252;60186;-72
2023/03/29 04:58:52;;;;;;;37.90;26.60;;;;;;;-3.07;100.00;99580.81;109573;1253;73798;-73
2023/03/29 05:01:19;;;;;;;34.80;25.50;;;;;;;-2.60;100.00;99575.77;109532;1252;69662;-74
2023/03/29 05:03:46;;;;;;;39.30;28.50;;;;;;;-2.13;100.00;99570.98;109513;1253;72173;-73
2023/03/29 05:06:12;;;;;;;40.30;29.20;;;;;;;-1.63;100.00;99566.79;109558;1250;58125;-73
2023/03/29 05:08:39;;;;;;;44.70;29.20;;;;;;;-1.20;99.51;99566.04;109580;1250;58152;-73
2023/03/29 05:11:09;;;;;;;42.30;30.20;;;;;;;-0.85;97.79;99564.27;109603;1250;66495;-72
2023/03/29 05:13:36;;;;;;;43.30;27.50;;;;;;;-0.53;96.40;99561.27;109581;1250;60860;-72
2023/03/29 05:16:03;;;;;;;38.10;27.90;;;;;;;-0.26;95.42;99563.00;109592;1250;64699;-72
2023/03/29 05:18:30;;;;;;;36.50;25.30;;;;;;;0.10;94.56;99564.73;109359;1251;58210;-72
2023/03/29 05:20:58;;;;;;;32.10;24.20;;;;;;;0.39;93.18;99561.48;109628;1250;58538;-72
2023/03/29 05:23:25;;;;;;;33.70;23.60;;;;;;;0.57;92.47;99559.42;109624;1250;66216;-73
2023/03/29 05:25:52;;;;;;;31.70;24.20;;;;;;;0.79;91.87;99557.98;109607;1250;61026;-73
2023/03/29 05:28:19;;;;;;;31.60;21.90;;;;;;;1.07;90.89;99554.13;109584;1250;64709;-73
2023/03/29 05:30:46;;;;;;;29.20;21.50;;;;;;;1.30;90.03;99551.77;109604;1250;58162;-73
2023/03/29 05:33:13;;;;;;;29.40;22.80;;;;;;;1.43;89.00;99554.46;109679;1250;58183;-73
2023/03/29 05:35:39;;;;;;;30.20;21.10;;;;;;;1.59;88.67;99556.06;109323;1250;65950;-73
2023/03/29 05:38:06;;;;;;;28.80;20.20;;;;;;;1.78;88.18;99556.88;109623;1250;61233;-73
2023/03/29 05:40:34;;;;;;;26.50;20.50;;;;;;;1.94;87.60;99559.32;109434;1251;63710;-73
2023/03/29 05:43:01;;;;;;;30.10;19.60;;;;;;;2.08;87.11;99558.11;109627;1251;58291;-73
2023/03/29 05:45:28;;;;;;;27.20;20.30;;;;;;;2.26;86.75;99555.58;109684;1250;58160;-73
2023/03/29 05:47:56;;;;;;;24.70;19.00;;;;;;;2.42;86.08;99553.63;109621;1250;64792;-73
2023/03/29 05:50:23;;;;;;;26.30;19.40;;;;;;;2.43;85.29;99554.30;109574;1250;60901;-80
2023/03/29 05:52:50;;;;;;;24.90;18.10;;;;;;;2.54;85.14;99553.31;109538;1250;62416;-81
2023/03/29 05:55:17;;;;;;;25.30;19.10;;;;;;;2.70;84.65;99553.79;109585;1250;58499;-87
2023/03/29 05:57:44;;;;;;;30.00;20.50;;;;;;;2.86;84.46;99556.35;109613;1250;58299;-87
2023/03/29 06:00:18;;;;;;;25.20;18.40;;;;;;;2.99;83.85;99558.81;109587;1250;66321;-84
2023/03/29 06:02:45;;;;;;;25.30;18.20;;;;;;;3.05;83.17;99555.85;109398;1250;59781;-78
2023/03/29 06:05:12;;;;;;;25.90;18.20;;;;;;;2.98;83.21;99558.13;109493;1250;64126;-76
2023/03/29 06:07:39;;;;;;;28.30;19.20;;;;;;;2.97;82.86;99557.64;109536;1251;58157;-74
2023/03/29 06:10:08;;;;;;;26.70;18.70;;;;;;;3.04;82.41;99559.03;109548;1251;58274;-74
2023/03/29 06:12:35;;;;;;;24.50;17.70;;;;;;;3.20;82.11;99560.35;109549;1250;66265;-79
2023/03/29 06:15:03;;;;;;;28.60;21.10;;;;;;;3.26;81.24;99559.29;109571;1250;61245;-78
2023/03/29 06:17:32;;;;;;;26.60;18.20;;;;;;;3.21;80.24;99563.13;109015;1250;63937;-83
2023/03/29 06:19:59;;;;;;;26.80;18.50;;;;;;;3.11;79.70;99560.77;109526;1251;58359;-78
2023/03/29 06:22:26;;;;;;;26.50;17.90;;;;;;;3.10;79.82;99562.73;109286;1251;58218;-74
2023/03/29 06:24:53;;;;;;;26.10;18.10;;;;;;;3.06;79.34;99562.31;109308;1251;66065;-74
2023/03/29 06:27:20;;;;;;;27.30;19.10;;;;;;;3.01;79.43;99561.38;109634;1250;60967;-74
2023/03/29 06:29:47;;;;;;;26.70;17.20;;;;;;;2.94;79.71;99566.15;109374;1251;64004;-74
2023/03/29 06:32:13;;;;;;;28.30;18.70;;;;;;;2.67;79.28;99571.40;109553;1250;58143;-74
2023/03/29 06:34:40;;;;;;;27.50;20.00;;;;;;;2.34;79.06;99578.18;109616;1250;58158;-74
2023/03/29 06:37:07;;;;;;;28.30;18.60;;;;;;;2.11;79.69;99582.59;109612;1250;66042;-74
2023/03/29 06:39:33;;;;;;;27.80;19.60;;;;;;;1.90;79.75;99584.12;109623;1250;69980;-74
2023/03/29 06:42:00;;;;;;;27.90;18.70;;;;;;;1.76;80.23;99584.60;109564;1250;63707;-74
2023/03/29 06:44:27;;;;;;;31.10;19.80;;;;;;;1.71;80.38;99586.27;109583;1250;58510;-75
2023/03/29 06:46:53;;;;;;;32.90;21.30;;;;;;;1.64;80.37;99586.77;109616;1250;58367;-74
2023/03/29 06:49:20;;;;;;;32.30;21.70;;;;;;;1.59;80.39;99584.09;109627;1250;65924;-74
2023/03/29 06:51:47;;;;;;;35.30;22.00;;;;;;;1.55;80.46;99583.48;109622;1250;60256;-75
2023/03/29 06:54:14;;;;;;;36.90;22.80;;;;;;;1.53;80.81;99581.77;109612;1251;64785;-74
2023/03/29 06:56:40;;;;;;;37.60;23.20;;;;;;;1.52;80.83;99582.29;109588;1250;58121;-74
2023/03/29 06:59:08;;;;;;;36.50;22.90;;;;;;;1.56;80.77;99593.43;109613;1251;58127;-74
2023/03/29 07:01:36;;;;;;;39.20;24.20;;;;;;;1.56;80.82;99590.96;109603;1250;63944;-74
2023/03/29 07:04:06;;;;;;;37.70;22.50;;;;;;;1.60;80.53;99589.48;109617;1250;60793;-74
2023/03/29 07:06:35;;;;;;;33.20;21.40;;;;;;;1.64;80.15;99589.76;109606;1250;63677;-74
2023/03/29 07:09:05;;;;;;;29.30;18.00;;;;;;;1.68;79.81;99590.89;109580;1251;58454;-75
2023/03/29 07:11:34;;;;;;;34.60;20.30;;;;;;;1.70;78.88;99591.21;109638;1251;58183;-74
2023/03/29 07:14:02;;;;;;;29.20;19.20;;;;;;;1.71;78.71;99589.61;109557;1251;66329;-74
2023/03/29 07:16:28;;;;;;;34.60;19.10;;;;;;;1.73;78.58;99590.08;109551;1251;60884;-74
2023/03/29 07:18:55;;;;;;;28.10;17.40;;;;;;;1.79;78.94;99586.98;109590;1250;63673;-75
2023/03/29 07:21:22;;;;;;;18.30;11.50;;;;;;;1.88;77.74;99590.12;109610;1250;58121;-74
2023/03/29 07:23:48;;;;;;;15.80;9.50;;;;;;;1.93;77.02;99589.81;109640;1250;57990;-74
2023/03/29 07:26:15;;;;;;;13.40;9.00;;;;;;;1.95;75.49;99590.84;109621;1250;65857;-75
2023/03/29 07:28:42;;;;;;;12.20;8.60;;;;;;;1.97;75.23;99586.05;109607;1250;59716;-75
2023/03/29 07:31:10;;;;;;;10.50;7.60;;;;;;;2.02;74.47;99586.13;109597;1251;63658;-75
2023/03/29 07:33:37;;;;;;;13.60;7.30;;;;;;;2.04;72.83;99584.14;109532;1250;58574;-74
2023/03/29 07:36:05;;;;;;;10.60;7.00;;;;;;;2.08;73.39;99579.67;109079;1250;58223;-75
2023/03/29 07:38:32;;;;;;;11.50;7.50;;;;;;;2.17;73.21;99578.06;109630;1250;65254;-75
2023/03/29 07:41:03;;;;;;;10.90;7.60;;;;;;;2.26;72.95;99576.46;109624;1251;60182;-75
2023/03/29 07:43:29;;;;;;;13.60;8.20;;;;;;;2.35;72.97;99575.37;109600;1250;63690;-75
2023/03/29 07:46:00;;;;;;;15.40;9.50;;;;;;;2.43;71.75;99574.30;109579;1251;58124;-75
2023/03/29 07:48:27;;;;;;;14.20;8.80;;;;;;;2.47;71.65;99574.70;109569;1250;58070;-75
2023/03/29 07:50:53;;;;;;;13.00;7.80;;;;;;;2.51;70.74;99577.80;109570;1250;65103;-75
2023/03/29 07:53:20;;;;;;;11.60;8.30;;;;;;;2.50;68.73;99576.58;109585;1251;60684;-75
2023/03/29 07:55:48;;;;;;;11.50;8.20;;;;;;;2.50;68.63;99576.76;109606;1251;63735;-75
2023/03/29 07:58:15;;;;;;;13.80;9.30;;;;;;;2.53;69.10;99578.41;109547;1251;58183;-75
2023/03/29 08:00:44;;;;;;;16.90;11.20;;;;;;;2.57;68.94;99578.84;109598;1251;58102;-75
2023/03/29 08:03:11;;;;;;;15.60;10.60;;;;;;;2.63;69.48;99581.86;109595;1251;66487;-75
2023/03/29 08:05:38;;;;;;;14.10;9.50;;;;;;;2.72;69.51;99580.77;109579;1250;60929;-75
2023/03/29 08:08:06;;;;;;;14.00;9.10;;;;;;;2.80;69.45;99577.73;109604;1251;64181;-75
2023/03/29 08:10:35;;;;;;;14.70;8.90;;;;;;;2.91;69.04;99572.88;109540;1250;58181;-75
2023/03/29 08:13:08;;;;;;;13.40;7.60;;;;;;;2.96;67.53;99570.83;109595;1251;58157;-75
2023/03/29 08:15:37;;;;;;;15.00;8.40;;;;;;;2.99;66.27;99571.10;109588;1250;65873;-75
2023/03/29 08:18:05;;;;;;;12.40;7.30;;;;;;;3.02;66.51;99571.00;109585;1250;60813;-75
2023/03/29 08:20:31;;;;;;;10.40;6.40;;;;;;;3.12;65.55;99571.63;109563;1251;65092;-75
2023/03/29 08:22:58;;;;;;;11.00;5.90;;;;;;;3.16;63.62;99569.77;108032;1250;1002996;-75
2023/03/29 08:25:25;;;;;;;9.00;6.70;;;;;;;3.20;63.52;99566.31;109600;1251;58347;-75
2023/03/29 08:27:52;;;;;;;10.60;7.00;;;;;;;3.25;63.88;99559.32;109599;1251;64830;-73
2023/03/29 08:30:18;;;;;;;11.40;7.00;;;;;;;3.37;64.78;99557.05;109569;1251;60695;-73
2023/03/29 08:32:45;;;;;;;8.90;5.80;;;;;;;3.50;64.38;99555.45;109556;1250;63736;-75
2023/03/29 08:35:13;;;;;;;7.80;5.60;;;;;;;3.65;64.54;99555.20;109576;1250;58140;-75
2023/03/29 08:37:39;;;;;;;9.90;6.30;;;;;;;3.79;64.66;99552.84;109436;1251;58458;-75
2023/03/29 08:40:07;;;;;;;7.80;4.80;;;;;;;3.91;63.59;99548.77;109645;1251;66152;-75
2023/03/29 08:43:05;;;;;;;6.40;5.00;;;;;;;3.99;63.21;99543.44;109141;1251;61171;-75
2023/03/29 08:45:53;;;;;;;5.70;4.10;;;;;;;4.08;63.08;99544.21;109531;1251;64740;-75
2023/03/29 08:48:44;;;;;;;6.90;4.50;;;;;;;4.20;63.36;99539.59;109552;1250;58219;-74
2023/03/29 08:51:26;;;;;;;5.60;3.70;;;;;;;4.35;63.56;99537.00;109551;1251;58249;-74
2023/03/29 08:54:15;;;;;;;7.20;3.90;;;;;;;4.43;62.48;99532.51;109587;1251;65836;-74
2023/03/29 08:56:45;;;;;;;6.40;3.50;;;;;;;4.49;62.03;99533.02;109623;1250;61363;-74
2023/03/29 08:59:26;;;;;;;5.50;3.50;;;;;;;4.55;61.90;99533.71;109578;1250;65206;-74
2023/03/29 09:01:56;;;;;;;6.20;4.70;;;;;;;4.62;61.44;99529.42;109591;1251;58146;-73
2023/03/29 09:04:33;;;;;;;6.10;3.60;;;;;;;4.76;62.20;99528.04;109627;1250;58164;-74
2023/03/29 09:07:02;;;;;;;3.90;3.20;;;;;;;4.94;61.80;99525.80;109594;1251;65894;-74
2023/03/29 09:09:33;;;;;;;5.40;3.30;;;;;;;5.09;62.29;99521.95;109602;1250;60754;-74
2023/03/29 09:12:13;;;;;;;5.80;3.30;;;;;;;5.24;61.59;99519.62;109552;1250;65043;-74
2023/03/29 09:14:46;;;;;;;4.90;3.10;;;;;;;5.28;61.83;99513.66;109551;1251;58183;-74
2023/03/29 09:17:42;;;;;;;4.00;3.00;;;;;;;5.37;61.20;99516.89;109268;1251;58289;-74
2023/03/29 09:20:18;;;;;;;2.80;2.20;;;;;;;5.39;60.63;99513.45;109397;1250;65965;-74
2023/03/29 09:23:00;;;;;;;3.50;2.40;;;;;;;5.45;60.89;99511.45;109483;1250;146319;-74
2023/03/29 09:25:52;;;;;;;4.30;2.50;;;;;;;5.52;60.46;99504.85;109561;1250;64721;-74
2023/03/29 09:28:43;;;;;;;3.70;2.70;;;;;;;5.60;60.53;99502.62;109517;1250;58253;-74
2023/03/29 09:31:19;;;;;;;4.40;2.80;;;;;;;5.69;61.08;99499.11;109557;1251;58079;-74
2023/03/29 09:33:55;;;;;;;5.80;2.70;;;;;;;5.79;60.50;99497.46;109272;1251;64885;-74
2023/03/29 09:36:37;;;;;;;3.50;2.50;;;;;;;5.84;60.23;99493.89;109634;1250;61053;-74
2023/03/29 09:39:04;;;;;;;2.90;2.60;;;;;;;5.90;59.95;99491.38;108055;1250;1002548;-74
2023/03/29 09:41:38;;;;;;;3.10;2.10;;;;;;;5.93;59.52;99493.39;109518;1251;58240;-74
2023/03/29 09:44:09;;;;;;;3.40;2.50;;;;;;;5.99;58.31;99489.66;109635;1251;58175;-75
2023/03/29 09:46:40;;;;;;;3.40;2.20;;;;;;;5.88;56.90;99493.93;109589;1251;65008;-74
2023/03/29 09:49:13;;;;;;;3.30;2.40;;;;;;;5.82;57.47;99491.89;109587;1251;60831;-74
2023/03/29 09:51:41;;;;;;;3.20;2.20;;;;;;;5.90;58.12;99487.86;109615;1251;64215;-73
2023/03/29 09:54:10;;;;;;;3.40;2.70;;;;;;;6.00;57.42;99485.37;109576;1250;58408;-74
2023/03/29 09:56:38;;;;;;;3.60;2.50;;;;;;;6.08;56.79;99481.35;109593;1251;58218;-73
2023/03/29 09:59:06;;;;;;;3.10;2.40;;;;;;;6.17;57.17;99481.69;109612;1250;66267;-74
2023/03/29 10:01:40;;;;;;;4.50;2.60;;;;;;;6.32;57.59;99475.76;109306;1251;60876;-73
2023/03/29 10:04:09;;;;;;;3.30;2.20;;;;;;;6.48;57.32;99474.58;109527;1251;63658;-74
2023/03/29 10:06:40;;;;;;;3.60;2.50;;;;;;;6.58;56.89;99472.34;109586;1250;58165;-74
2023/03/29 10:09:16;;;;;;;3.00;2.00;;;;;;;6.67;56.21;99470.57;109564;1250;58134;-74
2023/03/29 10:11:46;;;;;;;3.00;1.80;;;;;;;6.77;56.59;99469.27;109633;1250;66114;-74
2023/03/29 10:14:34;;;;;;;2.40;1.80;;;;;;;6.87;55.88;99468.63;109591;1250;60766;-75
2023/03/29 10:17:10;;;;;;;5.40;2.70;;;;;;;6.92;55.00;99465.42;109369;1250;63755;-74
2023/03/29 10:19:36;;;;;;;2.70;1.90;;;;;;;6.94;54.84;99462.54;109582;1251;58141;-74
2023/03/29 10:22:16;;;;;;;3.60;2.30;;;;;;;6.96;54.03;99459.08;109594;1250;58202;-74
2023/03/29 10:24:50;;;;;;;4.60;2.10;;;;;;;6.98;53.60;99463.89;109582;1251;65022;-74
2023/03/29 10:27:23;;;;;;;3.10;2.10;;;;;;;6.96;53.08;99461.70;109618;1250;60727;-75
2023/03/29 10:29:51;;;;;;;2.70;1.90;;;;;;;6.87;51.87;99463.69;109493;1251;63840;-74
2023/03/29 10:32:21;;;;;;;3.80;1.90;;;;;;;6.79;52.32;99462.83;109567;1251;58172;-74
2023/03/29 10:34:50;;;;;;;3.40;2.20;;;;;;;6.79;52.37;99456.30;109598;1250;58206;-75
2023/03/29 10:37:27;;;;;;;2.60;1.90;;;;;;;6.86;51.63;99454.58;109418;1251;66314;-75
2023/03/29 10:39:54;;;;;;;4.60;2.50;;;;;;;6.93;52.23;99453.37;109269;1251;59720;-74
2023/03/29 10:42:23;;;;;;;2.90;1.90;;;;;;;7.10;52.60;99447.65;109612;1251;64211;-75
2023/03/29 10:44:58;;;;;;;2.20;1.80;;;;;;;7.23;52.18;99453.93;109631;1250;58488;-74
2023/03/29 10:47:33;;;;;;;3.40;2.60;;;;;;;7.31;51.65;99453.23;109624;1250;58213;-75
2023/03/29 10:50:00;;;;;;;2.80;2.00;;;;;;;7.37;51.56;99447.80;109657;1250;66129;-75
2023/03/29 10:52:28;;;;;;;4.60;2.70;;;;;;;7.47;51.46;99445.56;109592;1254;60682;-75
2023/03/29 10:54:55;;;;;;;4.10;2.30;;;;;;;7.52;49.99;99440.78;109573;1250;64045;-75
2023/03/29 10:57:40;;;;;;;2.70;1.80;;;;;;;7.53;51.21;99437.17;109409;1251;58378;-73
2023/03/29 11:00:17;;;;;;;2.30;1.70;;;;;;;7.64;49.11;99433.98;109262;1251;58320;-75
2023/03/29 11:03:01;;;;;;;4.30;2.50;;;;;;;7.68;47.23;99436.45;109612;1251;65908;-75
2023/03/29 11:05:38;;;;;;;2.10;1.50;;;;;;;7.67;47.29;99428.73;109597;1251;61059;-75
2023/03/29 11:08:15;;;;;;;4.70;2.20;;;;;;;7.71;47.66;99422.02;109587;1251;63508;-74
2023/03/29 11:10:44;;;;;;;2.50;1.50;;;;;;;7.80;47.20;99418.89;109571;1251;58172;-75
2023/03/29 11:13:22;;;;;;;1.80;1.50;;;;;;;7.90;45.77;99420.17;109633;1250;58335;-73
2023/03/29 11:16:17;;;;;;;1.60;1.30;;;;;;;7.98;43.97;99416.98;109583;1251;66141;-73
2023/03/29 11:19:07;;;;;;;1.70;1.60;;;;;;;7.86;41.70;99407.32;109639;1251;60700;-74
2023/03/29 11:22:08;;;;;;;4.30;2.00;;;;;;;7.83;43.33;99407.81;109597;1250;63804;-74
2023/03/29 11:24:48;;;;;;;4.90;2.90;;;;;;;7.80;44.04;99404.75;109611;1250;58389;-74
2023/03/29 11:27:28;;;;;;;4.40;2.40;;;;;;;7.78;44.57;99398.46;109646;1251;58188;-75
2023/03/29 11:30:02;;;;;;;4.70;2.10;;;;;;;7.74;45.08;99392.65;109611;1251;65153;-75